sensor_id;sensor_type;location;lat;lon;timestamp;P1;durP1;ratioP1;P2;durP2;ratioP2
14789;SDS011;7486;51.010;10.366;2023-06-26T00:00:00;5.07;;;4.60;;
14789;SDS011;7486;51.010;10.366;2023-06-26T00:02:49;5.88;;;4.85;;
14789;SDS011;7486;51.010;10.366;2023-06-26T00:05:35;5.60;;;4.70;;
14789;SDS011;7486;51.010;10.366;2023-06-26T00:08:21;5.78;;;4.28;;
14789;SDS011;7486;51.010;10.366;2023-06-26T00:11:06;7.35;;;4.68;;
14789;SDS011;7486;51.010;10.366;2023-06-26T00:13:51;4.97;;;4.40;;
14789;SDS011;7486;51.010;10.366;2023-06-26T00:16:36;6.78;;;5.18;;
14789;SDS011;7486;51.010;10.366;2023-06-26T00:19:22;6.85;;;5.13;;
14789;SDS011;7486;51.010;10.366;2023-06-26T00:22:07;5.93;;;5.43;;
14789;SDS011;7486;51.010;10.366;2023-06-26T00:24:53;5.90;;;5.40;;
14789;SDS011;7486;51.010;10.366;2023-06-26T00:27:39;9.40;;;5.88;;
14789;SDS011;7486;51.010;10.366;2023-06-26T00:30:24;6.70;;;5.35;;
14789;SDS011;7486;51.010;10.366;2023-06-26T00:33:10;7.00;;;5.28;;
14789;SDS011;7486;51.010;10.366;2023-06-26T00:35:56;5.65;;;5.05;;
14789;SDS011;7486;51.010;10.366;2023-06-26T00:38:41;5.28;;;4.78;;
14789;SDS011;7486;51.010;10.366;2023-06-26T00:41:27;5.72;;;5.13;;
14789;SDS011;7486;51.010;10.366;2023-06-26T00:44:12;5.30;;;4.80;;
14789;SDS011;7486;51.010;10.366;2023-06-26T00:46:57;7.20;;;4.60;;
14789;SDS011;7486;51.010;10.366;2023-06-26T00:49:43;9.05;;;4.82;;
14789;SDS011;7486;51.010;10.366;2023-06-26T00:52:29;6.00;;;4.32;;
14789;SDS011;7486;51.010;10.366;2023-06-26T00:55:16;6.75;;;5.05;;
14789;SDS011;7486;51.010;10.366;2023-06-26T00:58:02;8.45;;;5.10;;
14789;SDS011;7486;51.010;10.366;2023-06-26T01:00:47;9.40;;;4.72;;
14789;SDS011;7486;51.010;10.366;2023-06-26T01:03:33;9.77;;;4.70;;
14789;SDS011;7486;51.010;10.366;2023-06-26T01:06:23;7.30;;;4.50;;
14789;SDS011;7486;51.010;10.366;2023-06-26T01:09:10;9.35;;;4.32;;
14789;SDS011;7486;51.010;10.366;2023-06-26T01:11:56;5.90;;;4.43;;
14789;SDS011;7486;51.010;10.366;2023-06-26T01:14:41;6.82;;;4.50;;
14789;SDS011;7486;51.010;10.366;2023-06-26T01:17:27;9.75;;;4.70;;
14789;SDS011;7486;51.010;10.366;2023-06-26T01:20:12;7.60;;;4.25;;
14789;SDS011;7486;51.010;10.366;2023-06-26T01:28:54;8.77;;;4.53;;
14789;SDS011;7486;51.010;10.366;2023-06-26T01:31:43;8.32;;;4.70;;
14789;SDS011;7486;51.010;10.366;2023-06-26T01:34:29;9.48;;;4.75;;
14789;SDS011;7486;51.010;10.366;2023-06-26T01:37:15;8.00;;;4.82;;
14789;SDS011;7486;51.010;10.366;2023-06-26T01:40:00;8.02;;;4.72;;
14789;SDS011;7486;51.010;10.366;2023-06-26T01:42:45;12.70;;;5.10;;
14789;SDS011;7486;51.010;10.366;2023-06-26T01:45:31;9.57;;;4.38;;
14789;SDS011;7486;51.010;10.366;2023-06-26T01:48:19;9.05;;;5.10;;
14789;SDS011;7486;51.010;10.366;2023-06-26T01:51:09;9.10;;;4.78;;
14789;SDS011;7486;51.010;10.366;2023-06-26T01:53:58;8.23;;;4.80;;
14789;SDS011;7486;51.010;10.366;2023-06-26T01:56:45;9.90;;;5.00;;
14789;SDS011;7486;51.010;10.366;2023-06-26T01:59:33;10.23;;;4.35;;
14789;SDS011;7486;51.010;10.366;2023-06-26T02:02:19;11.18;;;5.10;;
14789;SDS011;7486;51.010;10.366;2023-06-26T02:05:06;8.77;;;4.60;;
14789;SDS011;7486;51.010;10.366;2023-06-26T02:07:52;7.47;;;4.53;;
14789;SDS011;7486;51.010;10.366;2023-06-26T02:10:37;9.43;;;4.70;;
14789;SDS011;7486;51.010;10.366;2023-06-26T02:13:23;9.70;;;4.50;;
14789;SDS011;7486;51.010;10.366;2023-06-26T02:16:08;5.97;;;5.05;;
14789;SDS011;7486;51.010;10.366;2023-06-26T02:18:54;7.28;;;5.13;;
14789;SDS011;7486;51.010;10.366;2023-06-26T02:21:41;7.82;;;5.20;;
14789;SDS011;7486;51.010;10.366;2023-06-26T02:24:26;7.82;;;4.80;;
14789;SDS011;7486;51.010;10.366;2023-06-26T02:27:11;8.35;;;4.90;;
14789;SDS011;7486;51.010;10.366;2023-06-26T02:29:57;6.78;;;4.28;;
14789;SDS011;7486;51.010;10.366;2023-06-26T02:32:42;8.38;;;4.70;;
14789;SDS011;7486;51.010;10.366;2023-06-26T02:35:28;9.82;;;4.78;;
14789;SDS011;7486;51.010;10.366;2023-06-26T02:38:14;9.20;;;4.80;;
14789;SDS011;7486;51.010;10.366;2023-06-26T02:40:59;8.95;;;5.38;;
14789;SDS011;7486;51.010;10.366;2023-06-26T02:43:44;9.90;;;5.05;;
14789;SDS011;7486;51.010;10.366;2023-06-26T02:46:30;9.48;;;4.45;;
14789;SDS011;7486;51.010;10.366;2023-06-26T02:49:16;11.15;;;4.70;;
14789;SDS011;7486;51.010;10.366;2023-06-26T02:52:04;9.25;;;4.40;;
14789;SDS011;7486;51.010;10.366;2023-06-26T02:54:50;7.70;;;4.70;;
14789;SDS011;7486;51.010;10.366;2023-06-26T02:57:35;10.77;;;4.75;;
14789;SDS011;7486;51.010;10.366;2023-06-26T03:00:21;15.27;;;5.03;;
14789;SDS011;7486;51.010;10.366;2023-06-26T03:03:09;12.15;;;4.60;;
14789;SDS011;7486;51.010;10.366;2023-06-26T03:05:54;12.80;;;4.78;;
14789;SDS011;7486;51.010;10.366;2023-06-26T03:08:39;5.78;;;4.25;;
14789;SDS011;7486;51.010;10.366;2023-06-26T03:11:26;12.85;;;5.00;;
14789;SDS011;7486;51.010;10.366;2023-06-26T03:14:12;9.85;;;5.15;;
14789;SDS011;7486;51.010;10.366;2023-06-26T03:16:58;9.52;;;4.63;;
14789;SDS011;7486;51.010;10.366;2023-06-26T03:19:45;8.25;;;4.68;;
14789;SDS011;7486;51.010;10.366;2023-06-26T03:22:39;10.23;;;5.13;;
14789;SDS011;7486;51.010;10.366;2023-06-26T03:25:25;6.18;;;4.80;;
14789;SDS011;7486;51.010;10.366;2023-06-26T03:28:27;7.85;;;4.60;;
14789;SDS011;7486;51.010;10.366;2023-06-26T03:31:13;12.30;;;5.22;;
14789;SDS011;7486;51.010;10.366;2023-06-26T03:33:59;10.05;;;4.30;;
14789;SDS011;7486;51.010;10.366;2023-06-26T03:36:44;9.80;;;4.88;;
14789;SDS011;7486;51.010;10.366;2023-06-26T03:39:31;11.43;;;4.55;;
14789;SDS011;7486;51.010;10.366;2023-06-26T03:42:16;7.75;;;4.05;;
14789;SDS011;7486;51.010;10.366;2023-06-26T03:45:02;7.47;;;4.13;;
14789;SDS011;7486;51.010;10.366;2023-06-26T03:47:48;8.35;;;3.92;;
14789;SDS011;7486;51.010;10.366;2023-06-26T03:50:34;8.65;;;4.22;;
14789;SDS011;7486;51.010;10.366;2023-06-26T03:53:20;5.95;;;4.13;;
14789;SDS011;7486;51.010;10.366;2023-06-26T03:56:05;10.02;;;4.22;;
14789;SDS011;7486;51.010;10.366;2023-06-26T03:58:51;8.60;;;4.25;;
14789;SDS011;7486;51.010;10.366;2023-06-26T04:01:37;6.43;;;4.20;;
14789;SDS011;7486;51.010;10.366;2023-06-26T04:04:23;8.32;;;4.40;;
14789;SDS011;7486;51.010;10.366;2023-06-26T04:07:09;6.38;;;4.05;;
14789;SDS011;7486;51.010;10.366;2023-06-26T04:09:54;7.20;;;4.68;;
14789;SDS011;7486;51.010;10.366;2023-06-26T04:12:40;5.90;;;4.20;;
14789;SDS011;7486;51.010;10.366;2023-06-26T04:15:25;6.85;;;4.25;;
14789;SDS011;7486;51.010;10.366;2023-06-26T04:18:11;6.57;;;4.50;;
14789;SDS011;7486;51.010;10.366;2023-06-26T04:21:09;4.80;;;4.30;;
14789;SDS011;7486;51.010;10.366;2023-06-26T04:23:55;8.85;;;4.68;;
14789;SDS011;7486;51.010;10.366;2023-06-26T04:26:41;7.53;;;4.25;;
14789;SDS011;7486;51.010;10.366;2023-06-26T04:29:26;5.65;;;4.55;;
14789;SDS011;7486;51.010;10.366;2023-06-26T04:32:12;5.55;;;4.70;;
14789;SDS011;7486;51.010;10.366;2023-06-26T04:34:57;5.80;;;4.70;;
14789;SDS011;7486;51.010;10.366;2023-06-26T04:37:42;6.72;;;4.47;;
14789;SDS011;7486;51.010;10.366;2023-06-26T04:40:31;5.25;;;4.50;;
14789;SDS011;7486;51.010;10.366;2023-06-26T04:43:17;7.25;;;4.75;;
14789;SDS011;7486;51.010;10.366;2023-06-26T04:46:02;8.38;;;4.80;;
14789;SDS011;7486;51.010;10.366;2023-06-26T04:48:48;7.25;;;4.68;;
14789;SDS011;7486;51.010;10.366;2023-06-26T04:51:34;9.77;;;4.72;;
14789;SDS011;7486;51.010;10.366;2023-06-26T04:54:20;6.97;;;5.03;;
14789;SDS011;7486;51.010;10.366;2023-06-26T04:57:07;4.88;;;4.47;;
14789;SDS011;7486;51.010;10.366;2023-06-26T04:59:55;7.35;;;4.72;;
14789;SDS011;7486;51.010;10.366;2023-06-26T05:02:41;8.23;;;4.60;;
14789;SDS011;7486;51.010;10.366;2023-06-26T05:05:27;5.85;;;4.13;;
14789;SDS011;7486;51.010;10.366;2023-06-26T05:08:16;8.38;;;4.20;;
14789;SDS011;7486;51.010;10.366;2023-06-26T05:11:03;5.85;;;4.45;;
14789;SDS011;7486;51.010;10.366;2023-06-26T05:13:50;7.55;;;4.30;;
14789;SDS011;7486;51.010;10.366;2023-06-26T05:16:36;7.18;;;4.70;;
14789;SDS011;7486;51.010;10.366;2023-06-26T05:19:21;5.60;;;4.70;;
14789;SDS011;7486;51.010;10.366;2023-06-26T05:22:07;8.43;;;4.90;;
14789;SDS011;7486;51.010;10.366;2023-06-26T05:24:54;5.22;;;4.68;;
14789;SDS011;7486;51.010;10.366;2023-06-26T05:27:40;6.80;;;4.88;;
14789;SDS011;7486;51.010;10.366;2023-06-26T05:30:26;6.47;;;4.60;;
14789;SDS011;7486;51.010;10.366;2023-06-26T05:33:12;7.55;;;5.10;;
14789;SDS011;7486;51.010;10.366;2023-06-26T05:36:00;5.30;;;4.80;;
14789;SDS011;7486;51.010;10.366;2023-06-26T05:38:49;6.70;;;4.75;;
14789;SDS011;7486;51.010;10.366;2023-06-26T05:41:34;4.93;;;4.40;;
14789;SDS011;7486;51.010;10.366;2023-06-26T05:44:20;5.05;;;4.53;;
14789;SDS011;7486;51.010;10.366;2023-06-26T05:47:06;5.70;;;4.72;;
14789;SDS011;7486;51.010;10.366;2023-06-26T05:49:51;4.88;;;4.30;;
14789;SDS011;7486;51.010;10.366;2023-06-26T05:52:37;5.05;;;4.55;;
14789;SDS011;7486;51.010;10.366;2023-06-26T05:55:23;5.25;;;4.60;;
14789;SDS011;7486;51.010;10.366;2023-06-26T05:58:09;5.28;;;4.78;;
14789;SDS011;7486;51.010;10.366;2023-06-26T06:00:55;5.97;;;4.40;;
14789;SDS011;7486;51.010;10.366;2023-06-26T06:03:41;5.18;;;4.70;;
14789;SDS011;7486;51.010;10.366;2023-06-26T06:06:26;6.55;;;5.28;;
14789;SDS011;7486;51.010;10.366;2023-06-26T06:09:12;4.82;;;4.32;;
14789;SDS011;7486;51.010;10.366;2023-06-26T06:11:58;5.07;;;4.63;;
14789;SDS011;7486;51.010;10.366;2023-06-26T06:14:44;5.38;;;4.78;;
14789;SDS011;7486;51.010;10.366;2023-06-26T06:17:29;4.97;;;4.55;;
14789;SDS011;7486;51.010;10.366;2023-06-26T06:20:15;4.45;;;4.07;;
14789;SDS011;7486;51.010;10.366;2023-06-26T06:23:00;4.80;;;4.40;;
14789;SDS011;7486;51.010;10.366;2023-06-26T06:25:46;6.43;;;4.80;;
14789;SDS011;7486;51.010;10.366;2023-06-26T06:28:31;5.20;;;4.70;;
14789;SDS011;7486;51.010;10.366;2023-06-26T06:31:16;4.70;;;4.28;;
14789;SDS011;7486;51.010;10.366;2023-06-26T06:34:02;5.22;;;4.72;;
14789;SDS011;7486;51.010;10.366;2023-06-26T06:36:47;5.13;;;4.63;;
14789;SDS011;7486;51.010;10.366;2023-06-26T06:39:33;5.05;;;4.55;;
14789;SDS011;7486;51.010;10.366;2023-06-26T06:42:18;4.90;;;4.40;;
14789;SDS011;7486;51.010;10.366;2023-06-26T06:45:05;4.63;;;4.18;;
14789;SDS011;7486;51.010;10.366;2023-06-26T06:47:51;4.45;;;4.05;;
14789;SDS011;7486;51.010;10.366;2023-06-26T06:50:36;4.88;;;4.45;;
14789;SDS011;7486;51.010;10.366;2023-06-26T06:53:22;4.47;;;4.07;;
14789;SDS011;7486;51.010;10.366;2023-06-26T06:56:07;4.35;;;3.95;;
14789;SDS011;7486;51.010;10.366;2023-06-26T06:58:53;4.55;;;4.15;;
14789;SDS011;7486;51.010;10.366;2023-06-26T07:01:39;4.40;;;4.00;;
14789;SDS011;7486;51.010;10.366;2023-06-26T07:04:25;4.60;;;4.10;;
14789;SDS011;7486;51.010;10.366;2023-06-26T07:07:11;5.03;;;4.50;;
14789;SDS011;7486;51.010;10.366;2023-06-26T07:09:59;4.55;;;4.15;;
14789;SDS011;7486;51.010;10.366;2023-06-26T07:12:45;4.43;;;4.03;;
14789;SDS011;7486;51.010;10.366;2023-06-26T07:15:30;6.25;;;4.00;;
14789;SDS011;7486;51.010;10.366;2023-06-26T07:18:16;4.25;;;3.95;;
14789;SDS011;7486;51.010;10.366;2023-06-26T07:21:02;4.43;;;4.00;;
14789;SDS011;7486;51.010;10.366;2023-06-26T07:23:47;4.90;;;4.50;;
14789;SDS011;7486;51.010;10.366;2023-06-26T07:26:33;4.93;;;4.07;;
14789;SDS011;7486;51.010;10.366;2023-06-26T07:29:30;4.10;;;3.80;;
14789;SDS011;7486;51.010;10.366;2023-06-26T07:32:15;4.35;;;3.95;;
14789;SDS011;7486;51.010;10.366;2023-06-26T07:35:01;5.03;;;3.67;;
14789;SDS011;7486;51.010;10.366;2023-06-26T07:37:47;5.93;;;3.85;;
14789;SDS011;7486;51.010;10.366;2023-06-26T07:40:32;4.43;;;3.88;;
14789;SDS011;7486;51.010;10.366;2023-06-26T07:43:18;4.47;;;3.85;;
14789;SDS011;7486;51.010;10.366;2023-06-26T07:46:03;5.53;;;4.15;;
14789;SDS011;7486;51.010;10.366;2023-06-26T07:48:48;4.22;;;3.83;;
14789;SDS011;7486;51.010;10.366;2023-06-26T07:51:34;4.07;;;3.78;;
14789;SDS011;7486;51.010;10.366;2023-06-26T07:54:19;4.03;;;3.70;;
14789;SDS011;7486;51.010;10.366;2023-06-26T07:57:05;4.15;;;3.83;;
14789;SDS011;7486;51.010;10.366;2023-06-26T07:59:50;4.40;;;4.00;;
14789;SDS011;7486;51.010;10.366;2023-06-26T08:02:36;4.60;;;4.20;;
14789;SDS011;7486;51.010;10.366;2023-06-26T08:05:22;4.07;;;3.78;;
14789;SDS011;7486;51.010;10.366;2023-06-26T08:08:07;4.00;;;3.70;;
14789;SDS011;7486;51.010;10.366;2023-06-26T08:10:53;3.88;;;3.55;;
14789;SDS011;7486;51.010;10.366;2023-06-26T08:13:38;4.10;;;3.80;;
14789;SDS011;7486;51.010;10.366;2023-06-26T08:16:24;3.80;;;3.50;;
14789;SDS011;7486;51.010;10.366;2023-06-26T08:19:10;3.97;;;3.67;;
14789;SDS011;7486;51.010;10.366;2023-06-26T08:21:56;4.35;;;3.95;;
14789;SDS011;7486;51.010;10.366;2023-06-26T08:24:42;4.18;;;3.78;;
14789;SDS011;7486;51.010;10.366;2023-06-26T08:27:28;3.65;;;3.38;;
14789;SDS011;7486;51.010;10.366;2023-06-26T08:30:13;4.15;;;3.70;;
14789;SDS011;7486;51.010;10.366;2023-06-26T08:32:59;4.28;;;3.88;;
14789;SDS011;7486;51.010;10.366;2023-06-26T08:35:44;4.20;;;3.90;;
14789;SDS011;7486;51.010;10.366;2023-06-26T08:38:30;4.55;;;4.15;;
14789;SDS011;7486;51.010;10.366;2023-06-26T08:41:15;4.18;;;3.80;;
14789;SDS011;7486;51.010;10.366;2023-06-26T08:44:02;4.50;;;4.10;;
14789;SDS011;7486;51.010;10.366;2023-06-26T08:46:47;4.40;;;4.00;;
14789;SDS011;7486;51.010;10.366;2023-06-26T08:49:34;4.30;;;3.90;;
14789;SDS011;7486;51.010;10.366;2023-06-26T08:52:28;4.40;;;4.00;;
14789;SDS011;7486;51.010;10.366;2023-06-26T08:55:37;4.20;;;3.90;;
14789;SDS011;7486;51.010;10.366;2023-06-26T08:58:26;4.20;;;3.80;;
14789;SDS011;7486;51.010;10.366;2023-06-26T09:01:12;4.35;;;3.95;;
14789;SDS011;7486;51.010;10.366;2023-06-26T09:03:58;4.68;;;3.92;;
14789;SDS011;7486;51.010;10.366;2023-06-26T09:06:44;4.70;;;4.18;;
14789;SDS011;7486;51.010;10.366;2023-06-26T09:09:30;4.10;;;3.70;;
14789;SDS011;7486;51.010;10.366;2023-06-26T09:12:16;4.63;;;4.22;;
14789;SDS011;7486;51.010;10.366;2023-06-26T09:15:01;4.28;;;3.88;;
14789;SDS011;7486;51.010;10.366;2023-06-26T09:17:49;4.45;;;3.92;;
14789;SDS011;7486;51.010;10.366;2023-06-26T09:20:35;4.60;;;4.20;;
14789;SDS011;7486;51.010;10.366;2023-06-26T09:23:21;5.28;;;4.00;;
14789;SDS011;7486;51.010;10.366;2023-06-26T09:26:07;4.38;;;3.97;;
14789;SDS011;7486;51.010;10.366;2023-06-26T09:28:53;5.13;;;4.13;;
14789;SDS011;7486;51.010;10.366;2023-06-26T09:31:39;4.25;;;3.85;;
14789;SDS011;7486;51.010;10.366;2023-06-26T09:34:30;4.15;;;3.75;;
14789;SDS011;7486;51.010;10.366;2023-06-26T09:37:16;5.15;;;4.28;;
14789;SDS011;7486;51.010;10.366;2023-06-26T09:40:02;4.18;;;3.88;;
14789;SDS011;7486;51.010;10.366;2023-06-26T09:42:49;5.40;;;4.05;;
14789;SDS011;7486;51.010;10.366;2023-06-26T09:45:35;4.88;;;3.83;;
14789;SDS011;7486;51.010;10.366;2023-06-26T09:48:21;4.18;;;3.78;;
14789;SDS011;7486;51.010;10.366;2023-06-26T09:51:06;4.30;;;3.90;;
14789;SDS011;7486;51.010;10.366;2023-06-26T09:53:58;4.32;;;4.00;;
14789;SDS011;7486;51.010;10.366;2023-06-26T09:56:44;4.63;;;3.50;;
14789;SDS011;7486;51.010;10.366;2023-06-26T09:59:30;3.88;;;3.40;;
14789;SDS011;7486;51.010;10.366;2023-06-26T10:02:15;4.30;;;3.90;;
14789;SDS011;7486;51.010;10.366;2023-06-26T10:05:01;3.92;;;3.55;;
14789;SDS011;7486;51.010;10.366;2023-06-26T10:07:46;3.65;;;3.35;;
14789;SDS011;7486;51.010;10.366;2023-06-26T10:10:36;4.03;;;3.63;;
14789;SDS011;7486;51.010;10.366;2023-06-26T10:13:25;4.88;;;3.97;;
14789;SDS011;7486;51.010;10.366;2023-06-26T10:16:22;4.07;;;3.67;;
14789;SDS011;7486;51.010;10.366;2023-06-26T10:19:11;3.80;;;3.50;;
14789;SDS011;7486;51.010;10.366;2023-06-26T10:21:58;4.70;;;3.90;;
14789;SDS011;7486;51.010;10.366;2023-06-26T10:24:47;4.45;;;4.03;;
14789;SDS011;7486;51.010;10.366;2023-06-26T10:27:36;4.05;;;3.75;;
14789;SDS011;7486;51.010;10.366;2023-06-26T10:30:28;4.07;;;3.70;;
14789;SDS011;7486;51.010;10.366;2023-06-26T10:33:17;4.57;;;4.15;;
14789;SDS011;7486;51.010;10.366;2023-06-26T10:36:14;4.32;;;4.00;;
14789;SDS011;7486;51.010;10.366;2023-06-26T10:39:04;6.70;;;3.42;;
14789;SDS011;7486;51.010;10.366;2023-06-26T10:41:51;4.35;;;4.00;;
14789;SDS011;7486;51.010;10.366;2023-06-26T10:44:50;4.07;;;3.67;;
14789;SDS011;7486;51.010;10.366;2023-06-26T10:47:37;4.43;;;4.03;;
14789;SDS011;7486;51.010;10.366;2023-06-26T10:50:29;4.78;;;3.67;;
14789;SDS011;7486;51.010;10.366;2023-06-26T10:56:03;4.18;;;3.78;;
14789;SDS011;7486;51.010;10.366;2023-06-26T10:58:51;4.50;;;4.10;;
14789;SDS011;7486;51.010;10.366;2023-06-26T11:01:40;6.68;;;3.60;;
14789;SDS011;7486;51.010;10.366;2023-06-26T11:04:36;4.75;;;4.00;;
14789;SDS011;7486;51.010;10.366;2023-06-26T11:07:25;3.88;;;3.58;;
14789;SDS011;7486;51.010;10.366;2023-06-26T11:10:11;3.90;;;3.60;;
14789;SDS011;7486;51.010;10.366;2023-06-26T11:12:57;4.25;;;3.85;;
14789;SDS011;7486;51.010;10.366;2023-06-26T11:15:44;4.75;;;3.92;;
14789;SDS011;7486;51.010;10.366;2023-06-26T11:18:29;5.80;;;4.22;;
14789;SDS011;7486;51.010;10.366;2023-06-26T11:21:15;4.63;;;4.22;;
14789;SDS011;7486;51.010;10.366;2023-06-26T11:24:01;4.30;;;3.90;;
14789;SDS011;7486;51.010;10.366;2023-06-26T11:26:47;4.38;;;3.97;;
14789;SDS011;7486;51.010;10.366;2023-06-26T11:29:33;6.50;;;4.30;;
14789;SDS011;7486;51.010;10.366;2023-06-26T11:32:19;5.25;;;4.50;;
14789;SDS011;7486;51.010;10.366;2023-06-26T11:35:04;4.00;;;3.70;;
14789;SDS011;7486;51.010;10.366;2023-06-26T11:37:54;4.07;;;3.75;;
14789;SDS011;7486;51.010;10.366;2023-06-26T11:40:44;6.70;;;3.85;;
14789;SDS011;7486;51.010;10.366;2023-06-26T11:43:29;4.22;;;3.83;;
14789;SDS011;7486;51.010;10.366;2023-06-26T11:46:16;4.13;;;3.72;;
14789;SDS011;7486;51.010;10.366;2023-06-26T11:49:07;5.78;;;4.35;;
14789;SDS011;7486;51.010;10.366;2023-06-26T11:51:53;5.22;;;3.75;;
14789;SDS011;7486;51.010;10.366;2023-06-26T11:54:39;5.25;;;3.58;;
14789;SDS011;7486;51.010;10.366;2023-06-26T11:57:24;5.32;;;3.78;;
14789;SDS011;7486;51.010;10.366;2023-06-26T12:00:14;5.03;;;3.90;;
14789;SDS011;7486;51.010;10.366;2023-06-26T12:03:00;4.53;;;3.75;;
14789;SDS011;7486;51.010;10.366;2023-06-26T12:05:46;4.40;;;3.67;;
14789;SDS011;7486;51.010;10.366;2023-06-26T12:08:32;4.25;;;3.80;;
14789;SDS011;7486;51.010;10.366;2023-06-26T12:11:17;4.45;;;4.05;;
14789;SDS011;7486;51.010;10.366;2023-06-26T12:14:05;4.68;;;4.20;;
14789;SDS011;7486;51.010;10.366;2023-06-26T12:16:52;4.93;;;4.53;;
14789;SDS011;7486;51.010;10.366;2023-06-26T12:19:38;7.18;;;4.60;;
14789;SDS011;7486;51.010;10.366;2023-06-26T12:22:33;4.72;;;4.22;;
14789;SDS011;7486;51.010;10.366;2023-06-26T12:25:23;4.93;;;4.40;;
14789;SDS011;7486;51.010;10.366;2023-06-26T12:28:16;5.05;;;4.43;;
14789;SDS011;7486;51.010;10.366;2023-06-26T12:31:12;5.35;;;4.32;;
14789;SDS011;7486;51.010;10.366;2023-06-26T12:34:01;4.82;;;4.43;;
14789;SDS011;7486;51.010;10.366;2023-06-26T12:36:47;5.15;;;4.40;;
14789;SDS011;7486;51.010;10.366;2023-06-26T12:39:46;5.10;;;4.60;;
14789;SDS011;7486;51.010;10.366;2023-06-26T12:42:39;6.05;;;4.40;;
14789;SDS011;7486;51.010;10.366;2023-06-26T12:45:24;5.15;;;4.30;;
14789;SDS011;7486;51.010;10.366;2023-06-26T12:48:17;4.75;;;4.32;;
14789;SDS011;7486;51.010;10.366;2023-06-26T12:51:12;5.05;;;4.10;;
14789;SDS011;7486;51.010;10.366;2023-06-26T12:53:59;5.97;;;4.43;;
14789;SDS011;7486;51.010;10.366;2023-06-26T12:56:44;5.28;;;4.32;;
14789;SDS011;7486;51.010;10.366;2023-06-26T12:59:30;5.10;;;4.32;;
14789;SDS011;7486;51.010;10.366;2023-06-26T13:02:16;5.00;;;4.50;;
14789;SDS011;7486;51.010;10.366;2023-06-26T13:05:01;5.05;;;4.50;;
14789;SDS011;7486;51.010;10.366;2023-06-26T13:07:47;5.15;;;4.65;;
14789;SDS011;7486;51.010;10.366;2023-06-26T13:10:32;6.97;;;4.40;;
14789;SDS011;7486;51.010;10.366;2023-06-26T13:13:17;5.65;;;4.80;;
14789;SDS011;7486;51.010;10.366;2023-06-26T13:16:03;7.28;;;4.57;;
14789;SDS011;7486;51.010;10.366;2023-06-26T13:18:49;5.57;;;4.95;;
14789;SDS011;7486;51.010;10.366;2023-06-26T13:21:34;6.05;;;5.15;;
14789;SDS011;7486;51.010;10.366;2023-06-26T13:24:20;6.63;;;4.90;;
14789;SDS011;7486;51.010;10.366;2023-06-26T13:27:05;5.82;;;5.05;;
14789;SDS011;7486;51.010;10.366;2023-06-26T13:29:51;5.60;;;4.93;;
14789;SDS011;7486;51.010;10.366;2023-06-26T13:32:37;5.57;;;5.07;;
14789;SDS011;7486;51.010;10.366;2023-06-26T13:35:22;8.73;;;5.15;;
14789;SDS011;7486;51.010;10.366;2023-06-26T13:38:08;6.15;;;4.95;;
14789;SDS011;7486;51.010;10.366;2023-06-26T13:40:53;6.85;;;5.05;;
14789;SDS011;7486;51.010;10.366;2023-06-26T13:43:40;6.80;;;5.63;;
14789;SDS011;7486;51.010;10.366;2023-06-26T13:46:26;6.55;;;5.70;;
14789;SDS011;7486;51.010;10.366;2023-06-26T13:49:11;7.28;;;6.20;;
14789;SDS011;7486;51.010;10.366;2023-06-26T13:51:57;7.47;;;5.93;;
14789;SDS011;7486;51.010;10.366;2023-06-26T13:54:42;6.82;;;6.00;;
14789;SDS011;7486;51.010;10.366;2023-06-26T13:57:27;6.60;;;5.90;;
14789;SDS011;7486;51.010;10.366;2023-06-26T14:00:13;6.68;;;5.72;;
14789;SDS011;7486;51.010;10.366;2023-06-26T14:03:00;7.15;;;5.50;;
14789;SDS011;7486;51.010;10.366;2023-06-26T14:05:46;7.05;;;6.25;;
14789;SDS011;7486;51.010;10.366;2023-06-26T14:08:32;6.35;;;5.53;;
14789;SDS011;7486;51.010;10.366;2023-06-26T14:11:18;6.55;;;5.88;;
14789;SDS011;7486;51.010;10.366;2023-06-26T14:14:03;9.05;;;5.85;;
14789;SDS011;7486;51.010;10.366;2023-06-26T14:16:49;5.80;;;5.20;;
14789;SDS011;7486;51.010;10.366;2023-06-26T14:19:34;7.13;;;5.40;;
14789;SDS011;7486;51.010;10.366;2023-06-26T14:22:20;7.88;;;5.95;;
14789;SDS011;7486;51.010;10.366;2023-06-26T14:25:06;7.80;;;6.05;;
14789;SDS011;7486;51.010;10.366;2023-06-26T14:27:53;6.22;;;5.50;;
14789;SDS011;7486;51.010;10.366;2023-06-26T14:30:40;8.68;;;5.82;;
14789;SDS011;7486;51.010;10.366;2023-06-26T14:33:26;6.90;;;5.40;;
14789;SDS011;7486;51.010;10.366;2023-06-26T14:36:12;7.32;;;5.65;;
14789;SDS011;7486;51.010;10.366;2023-06-26T14:38:57;8.73;;;5.82;;
14789;SDS011;7486;51.010;10.366;2023-06-26T14:41:43;6.32;;;5.70;;
14789;SDS011;7486;51.010;10.366;2023-06-26T14:44:29;7.63;;;5.40;;
14789;SDS011;7486;51.010;10.366;2023-06-26T14:47:15;6.95;;;5.45;;
14789;SDS011;7486;51.010;10.366;2023-06-26T14:50:01;6.35;;;5.60;;
14789;SDS011;7486;51.010;10.366;2023-06-26T14:52:46;7.57;;;6.30;;
14789;SDS011;7486;51.010;10.366;2023-06-26T14:55:32;6.53;;;5.75;;
14789;SDS011;7486;51.010;10.366;2023-06-26T14:58:17;6.82;;;5.97;;
14789;SDS011;7486;51.010;10.366;2023-06-26T15:01:03;7.50;;;5.80;;
14789;SDS011;7486;51.010;10.366;2023-06-26T15:03:48;8.10;;;5.88;;
14789;SDS011;7486;51.010;10.366;2023-06-26T15:06:39;9.40;;;6.35;;
14789;SDS011;7486;51.010;10.366;2023-06-26T15:09:24;7.72;;;6.10;;
14789;SDS011;7486;51.010;10.366;2023-06-26T15:12:10;7.47;;;5.68;;
14789;SDS011;7486;51.010;10.366;2023-06-26T15:14:57;8.13;;;6.43;;
14789;SDS011;7486;51.010;10.366;2023-06-26T15:17:44;8.40;;;5.88;;
14789;SDS011;7486;51.010;10.366;2023-06-26T15:20:29;8.50;;;6.10;;
14789;SDS011;7486;51.010;10.366;2023-06-26T15:23:15;6.57;;;5.95;;
14789;SDS011;7486;51.010;10.366;2023-06-26T15:26:01;8.32;;;6.55;;
14789;SDS011;7486;51.010;10.366;2023-06-26T15:28:47;7.97;;;5.82;;
14789;SDS011;7486;51.010;10.366;2023-06-26T15:31:32;6.85;;;6.10;;
14789;SDS011;7486;51.010;10.366;2023-06-26T15:34:19;7.35;;;6.30;;
14789;SDS011;7486;51.010;10.366;2023-06-26T15:37:04;7.38;;;6.35;;
14789;SDS011;7486;51.010;10.366;2023-06-26T15:39:50;6.50;;;5.53;;
14789;SDS011;7486;51.010;10.366;2023-06-26T15:42:44;7.57;;;6.05;;
14789;SDS011;7486;51.010;10.366;2023-06-26T15:45:33;6.88;;;5.15;;
14789;SDS011;7486;51.010;10.366;2023-06-26T15:48:18;5.65;;;4.85;;
14789;SDS011;7486;51.010;10.366;2023-06-26T15:51:04;7.03;;;4.53;;
14789;SDS011;7486;51.010;10.366;2023-06-26T15:53:49;5.80;;;4.53;;
14789;SDS011;7486;51.010;10.366;2023-06-26T15:56:35;5.53;;;4.20;;
14789;SDS011;7486;51.010;10.366;2023-06-26T15:59:21;5.53;;;4.22;;
14789;SDS011;7486;51.010;10.366;2023-06-26T16:02:07;4.57;;;4.13;;
14789;SDS011;7486;51.010;10.366;2023-06-26T16:04:52;9.23;;;3.85;;
14789;SDS011;7486;51.010;10.366;2023-06-26T16:07:38;4.65;;;3.55;;
14789;SDS011;7486;51.010;10.366;2023-06-26T16:10:41;4.90;;;3.75;;
14789;SDS011;7486;51.010;10.366;2023-06-26T16:13:27;5.15;;;3.72;;
14789;SDS011;7486;51.010;10.366;2023-06-26T16:16:12;6.38;;;3.88;;
14789;SDS011;7486;51.010;10.366;2023-06-26T16:18:58;4.95;;;3.50;;
14789;SDS011;7486;51.010;10.366;2023-06-26T16:21:44;4.28;;;3.88;;
14789;SDS011;7486;51.010;10.366;2023-06-26T16:24:29;5.32;;;3.20;;
14789;SDS011;7486;51.010;10.366;2023-06-26T16:27:14;6.80;;;3.33;;
14789;SDS011;7486;51.010;10.366;2023-06-26T16:30:00;5.57;;;2.88;;
14789;SDS011;7486;51.010;10.366;2023-06-26T16:32:46;6.22;;;2.92;;
14789;SDS011;7486;51.010;10.366;2023-06-26T16:35:32;4.18;;;2.60;;
14789;SDS011;7486;51.010;10.366;2023-06-26T16:38:18;3.58;;;2.70;;
14789;SDS011;7486;51.010;10.366;2023-06-26T16:41:03;4.47;;;2.67;;
14789;SDS011;7486;51.010;10.366;2023-06-26T16:43:49;4.78;;;2.50;;
14789;SDS011;7486;51.010;10.366;2023-06-26T16:46:35;6.55;;;2.55;;
14789;SDS011;7486;51.010;10.366;2023-06-26T16:49:21;5.55;;;2.75;;
14789;SDS011;7486;51.010;10.366;2023-06-26T16:52:06;3.40;;;2.53;;